Weather reports worldwide

Advertisment
Monks wood, United Kingdom (99078): temperature & dewpoint: 14.01.2021 13:00:00 - 20.01.2021 13:00:00 (GMT)Monks wood, United Kingdom (99078): temperature -20cm & temperature -100cm: 14.01.2021 13:00:00 - 20.01.2021 13:00:00 (GMT)Monks wood, United Kingdom (99078): wind speed & gusts: 14.01.2021 13:00:00 - 20.01.2021 13:00:00 (GMT)Monks wood, United Kingdom (99078): wind direction: 14.01.2021 13:00:00 - 20.01.2021 13:00:00 (GMT)Monks wood, United Kingdom (99078): precipitation: 14.01.2021 13:00:00 - 20.01.2021 13:00:00 (GMT)
Date & Time tt [°C] td [°C] tt -20cm [°C] tt -100cm [°C] ff [km/h] ff [kn] fx [km/h] fx [kn] dd rr [mm]
20.01.2021 13:00:00 10,3 8,4 - - 29 16 48 26 SSW 0,0
20.01.2021 12:00:00 10,5 8,5 - - 31 17 54 29 SSW 0,0
20.01.2021 11:00:00 10,4 8,5 - - 34 18 54 29 SSW 0,0
20.01.2021 10:00:00 10,3 8,5 - - 29 16 52 28 SSW 0,0
20.01.2021 09:00:00 10,6 8,8 5,2 5,7 29 16 50 27 SSW 0,0
20.01.2021 08:00:00 10,7 9,1 - - 29 16 - - SSW 0,0
20.01.2021 07:00:00 10,4 9,5 - - 26 14 46 25 SSW 0,0
20.01.2021 06:00:00 10,3 9,5 - - 24 13 - - SSW 0,2
20.01.2021 05:00:00 10,3 9,3 - - 29 16 - - SSW 0,0
20.01.2021 04:00:00 10,3 9,5 - - 28 15 52 28 SSW 0,4
20.01.2021 03:00:00 10,2 9,3 - - 26 14 - - SSW 0,2
20.01.2021 02:00:00 10,4 9,3 - - 26 14 48 26 SSW 0,0
20.01.2021 01:00:00 10,4 9,0 - - 31 17 50 27 SSW 0,0
20.01.2021 00:00:00 10,2 9,0 - - 31 17 48 26 SSW 0,0
19.01.2021 23:00:00 9,8 8,9 - - 31 17 52 28 SSW 0,2
19.01.2021 22:00:00 10,2 8,7 - - 31 17 57 31 SSW 0,0
19.01.2021 21:00:00 9,9 8,6 - - 34 18 52 28 SSW 0,0
19.01.2021 20:00:00 9,3 8,5 - - 29 16 48 26 SSW 0,0
19.01.2021 19:00:00 9,3 8,4 - - 31 17 50 27 SSW 0,6
19.01.2021 18:00:00 9,3 8,1 - - 29 16 52 28 SSW 0,0
19.01.2021 17:00:00 9,8 8,0 - - 31 17 48 26 SSW 0,0
19.01.2021 16:00:00 10,0 7,7 - - 28 15 46 25 SW 0,0
19.01.2021 15:00:00 10,2 7,4 - - 28 15 52 28 SW 0,0
19.01.2021 14:00:00 10,7 6,9 - - 28 15 52 28 SW 0,0
19.01.2021 13:00:00 10,9 7,5 - - 37 20 55 30 SW 0,0
19.01.2021 12:00:00 11,2 8,1 - - 34 18 55 30 SW 0,0
19.01.2021 11:00:00 11,2 8,4 - - 31 17 50 27 SW 0,2
19.01.2021 10:00:00 10,7 8,6 - - 28 15 - - SW 0,0
19.01.2021 09:00:00 10,6 8,7 4,0 5,7 26 14 - - WSW 0,0
19.01.2021 08:00:00 10,6 8,7 - - 21 11 - - SW 0,0
19.01.2021 07:00:00 10,5 8,9 - - 22 12 - - WSW 0,0
19.01.2021 06:00:00 10,6 9,1 - - 26 14 - - WSW 0,0
19.01.2021 05:00:00 10,3 9,2 - - 28 15 48 26 SW 0,2
19.01.2021 04:00:00 10,1 9,4 - - 29 16 50 27 SW 1,0
19.01.2021 03:00:00 9,4 8,9 - - 28 15 - - SSW 1,4
19.01.2021 02:00:00 8,9 8,5 - - 21 11 - - SSW 1,0
19.01.2021 01:00:00 8,6 8,0 - - 24 13 - - SSW 0,0
19.01.2021 00:00:00 7,9 7,4 - - 21 11 - - SSW 0,2
18.01.2021 23:00:00 7,6 7,0 - - 18 10 - - SSW 1,8
18.01.2021 22:00:00 7,4 6,4 - - 18 10 - - SW 0,0
18.01.2021 21:00:00 6,8 5,3 - - 16 9 - - SSW 0,0
18.01.2021 20:00:00 6,5 4,9 - - 24 13 - - SW 0,0
18.01.2021 19:00:00 5,9 4,0 - - 21 11 - - SSW 0,0
18.01.2021 18:00:00 5,7 3,9 - - 13 7 - - SSW 0,0
18.01.2021 17:00:00 5,5 3,8 - - 13 7 - - SSW 0,0
18.01.2021 16:00:00 5,5 3,7 - - 13 7 - - SW 0,0
18.01.2021 15:00:00 5,1 3,5 - - 15 8 - - SW 0,0
18.01.2021 14:00:00 5,6 3,7 - - 16 9 - - SW 0,0
18.01.2021 13:00:00 5,4 3,5 - - 18 10 - - SW 0,0
18.01.2021 12:00:00 4,9 3,2 - - 21 11 - - SW 0,0
18.01.2021 11:00:00 4,4 3,3 - - 15 8 - - SW 0,0
18.01.2021 10:00:00 3,2 2,3 - - 13 7 - - SW 0,0
18.01.2021 09:00:00 2,8 2,0 3,7 5,7 15 8 - - SW 0,2
18.01.2021 08:00:00 2,3 1,7 - - 13 7 - - SW 0,0
18.01.2021 07:00:00 1,3 0,7 - - 13 7 - - SSW 0,0
18.01.2021 06:00:00 1,2 0,5 - - 11 6 - - SW 0,0
18.01.2021 05:00:00 1,3 0,5 - - 13 7 - - SSW 0,0
18.01.2021 04:00:00 1,2 0,4 - - 13 7 - - SW 0,0
18.01.2021 03:00:00 1,7 0,9 - - 15 8 - - SW 0,0
18.01.2021 02:00:00 2,3 1,4 - - 15 8 - - SW 0,0
18.01.2021 01:00:00 2,1 1,3 - - 16 9 - - SW 0,0
18.01.2021 00:00:00 2,1 1,1 - - 18 10 - - SW 0,0
17.01.2021 23:00:00 1,9 1,0 - - 11 6 - - SSW 0,0
17.01.2021 22:00:00 1,8 0,8 - - 9 5 - - SW 0,0
17.01.2021 21:00:00 1,9 0,8 - - 9 5 - - SSW 0,0
17.01.2021 20:00:00 2,9 1,2 - - 11 6 - - SW 0,0
17.01.2021 19:00:00 3,5 1,3 - - 9 5 - - SW 0,0
17.01.2021 18:00:00 4,9 2,6 - - 8 4 - - W 0,0
17.01.2021 17:00:00 5,3 2,9 - - 8 4 - - W 0,0
17.01.2021 16:00:00 6,2 3,1 - - 5 3 - - WSW 0,0
17.01.2021 15:00:00 6,8 3,2 - - 9 5 - - W 0,0
17.01.2021 14:00:00 6,7 3,3 - - 9 5 - - W 0,0
17.01.2021 13:00:00 6,2 3,2 - - 8 4 - - WNW 0,0
17.01.2021 12:00:00 6,2 3,1 - - 9 5 - - WNW 0,0
17.01.2021 11:00:00 5,7 2,8 - - 9 5 - - WNW 0,0
17.01.2021 10:00:00 4,7 2,5 - - 9 5 - - WNW 0,0
17.01.2021 09:00:00 3,2 1,9 3,7 5,7 9 5 - - W 0,0
17.01.2021 08:00:00 2,9 1,5 - - 9 5 - - W 0,0
17.01.2021 07:00:00 3,3 1,5 - - 8 4 - - W 0,0
17.01.2021 06:00:00 3,6 2,0 - - 11 6 - - W 0,0
17.01.2021 05:00:00 4,4 2,2 - - 11 6 - - WNW 0,2
17.01.2021 04:00:00 5,5 2,4 - - 11 6 - - W 0,0
17.01.2021 03:00:00 5,1 2,0 - - 9 5 - - W 0,0
17.01.2021 02:00:00 5,3 2,3 - - 9 5 - - W 0,0
17.01.2021 01:00:00 5,1 2,3 - - 11 6 - - WSW 0,0
17.01.2021 00:00:00 5,5 2,1 - - 9 5 - - W 0,0
16.01.2021 23:00:00 5,5 3,0 - - 9 5 - - W 0,0
16.01.2021 22:00:00 5,8 3,8 - - 9 5 - - WSW 0,0
16.01.2021 21:00:00 6,6 4,0 - - 8 4 - - W 0,0
16.01.2021 20:00:00 7,2 4,8 - - 9 5 - - W 0,0
16.01.2021 19:00:00 7,2 5,1 - - 9 5 - - W 0,0
16.01.2021 18:00:00 7,2 5,3 - - 11 6 - - WSW 0,0
16.01.2021 17:00:00 6,7 5,4 - - 8 4 - - WSW 0,0
16.01.2021 16:00:00 6,8 6,0 - - 8 4 - - WSW 0,0
16.01.2021 15:00:00 6,7 6,2 - - 9 5 - - WSW 0,0
16.01.2021 14:00:00 6,2 5,9 - - 11 6 - - WSW 0,0
16.01.2021 13:00:00 5,2 5,0 - - 11 6 - - SW 0,0
16.01.2021 12:00:00 3,8 3,5 - - 13 7 - - SSW 0,2
16.01.2021 11:00:00 2,8 2,5 - - 16 9 - - SSW 0,2
16.01.2021 10:00:00 1,9 1,5 - - 18 10 - - S 0,6
16.01.2021 09:00:00 1,3 0,7 3,7 5,7 21 11 - - S 2,2
16.01.2021 08:00:00 0,7 0,0 - - 18 10 - - S 2,6
16.01.2021 07:00:00 0,8 -0,1 - - 22 12 - - S 0,4
16.01.2021 06:00:00 0,9 -0,4 - - 24 13 - - S 0,0
16.01.2021 05:00:00 2,1 -0,5 - - 21 11 - - S 0,0
16.01.2021 04:00:00 1,9 -0,1 - - 24 13 - - SSW 0,2
16.01.2021 03:00:00 1,8 0,0 - - 16 9 - - S 0,0
16.01.2021 02:00:00 1,3 -0,2 - - 13 7 - - S 0,0
16.01.2021 01:00:00 0,9 -0,3 - - 11 6 - - S 0,0
16.01.2021 00:00:00 0,6 0,0 - - 11 6 - - S 0,0
15.01.2021 23:00:00 -0,1 -0,3 - - 8 4 - - S 0,0
15.01.2021 22:00:00 -0,4 -0,7 - - 8 4 - - S 0,0
15.01.2021 21:00:00 -0,1 -0,4 - - 5 3 - - S 0,0
15.01.2021 20:00:00 0,3 -0,1 - - 5 3 - - S 0,0
15.01.2021 19:00:00 0,6 0,2 - - 5 3 - - S 0,0
15.01.2021 18:00:00 1,3 0,9 - - 5 3 - - S 0,0
15.01.2021 17:00:00 1,6 1,1 - - 4 2 - - S 0,0
15.01.2021 16:00:00 2,1 1,6 - - 4 2 - - S 0,0
15.01.2021 15:00:00 2,4 1,9 - - 5 3 - - WSW 0,0
15.01.2021 14:00:00 2,4 2,1 - - 5 3 - - WSW 0,0
15.01.2021 13:00:00 2,1 1,9 - - 5 3 - - SW 0,0
15.01.2021 12:00:00 1,5 1,4 - - 5 3 - - SW 0,0
15.01.2021 11:00:00 0,7 0,6 - - 2 1 - - SSE 0,0
15.01.2021 10:00:00 0,1 0,0 - - 0 0 - - N 0,0
15.01.2021 09:00:00 0,0 -0,2 3,9 5,7 0 0 - - N 0,0
15.01.2021 08:00:00 -0,2 -0,3 - - 0 0 - - N 0,0
15.01.2021 07:00:00 -0,3 -0,4 - - 0 0 - - N 0,0
15.01.2021 06:00:00 -0,1 -0,2 - - 0 0 - - N 0,0
15.01.2021 05:00:00 -0,2 -0,3 - - 0 0 - - N 0,0
15.01.2021 04:00:00 -0,4 -0,6 - - 0 0 - - N 0,0
15.01.2021 03:00:00 -0,3 -0,5 - - 0 0 - - N 0,0
15.01.2021 02:00:00 0,0 -0,2 - - 0 0 - - N 0,0
15.01.2021 01:00:00 -0,6 -0,8 - - 0 0 - - N 0,0
15.01.2021 00:00:00 -0,7 -0,9 - - 2 1 - - NNW 0,0
14.01.2021 23:00:00 0,1 -0,1 - - 4 2 - - NNE 0,0
14.01.2021 22:00:00 1,0 0,8 - - 5 3 - - NNE 0,0
14.01.2021 21:00:00 0,9 0,8 - - 4 2 - - NNE 0,2
14.01.2021 20:00:00 1,1 0,9 - - 2 1 - - N 0,0
14.01.2021 19:00:00 1,2 1,0 - - 8 4 - - NNE 0,0
14.01.2021 18:00:00 1,1 0,9 - - 4 2 - - NNE 0,0
14.01.2021 17:00:00 0,8 0,6 - - 5 3 - - NNE 0,2
14.01.2021 16:00:00 0,8 0,6 - - 8 4 - - NE 0,4
14.01.2021 15:00:00 0,9 0,6 - - 9 5 - - NE 1,0
14.01.2021 14:00:00 1,6 1,2 - - 8 4 - - NE 1,6
14.01.2021 13:00:00 2,4 2,0 - - 9 5 - - ENE 1,0

tt = temperature
td = dewpoint
tt -20cm = temperature -20cm
tt -100cm = temperature -100cm
ff = wind speed
fx = gusts
dd = wind direction
rr = precipitation

Next stations